Time;durP1;ratioP1;P1;durP2;ratioP2;P2;SDS_P1;SDS_P2;PMS_P1;PMS_P2;Temp;Humidity;BMP_temperature;BMP_pressure;BME280_temperature;BME280_humidity;BME280_pressure;Samples;Min_cycle;Max_cycle;Signal;HPM_P1;HPM_P2
2023/05/26 00:02:01;;;;;;;14.70;10.30;;;;;;;14.42;61.88;101109.29;112684;1241;23617;-75
2023/05/26 00:04:54;;;;;;;15.60;11.20;;;;;;;14.44;62.02;101109.02;112437;1241;21965;-75
2023/05/26 00:07:42;;;;;;;17.20;11.30;;;;;;;14.47;62.18;101103.82;113171;1235;23678;-76
2023/05/26 00:10:28;;;;;;;14.70;10.50;;;;;;;14.51;62.24;101106.30;113189;1235;24287;-77
2023/05/26 00:13:09;;;;;;;12.90;10.80;;;;;;;14.55;62.20;101112.98;113209;1235;21975;-75
2023/05/26 00:15:54;;;;;;;13.30;10.40;;;;;;;14.59;62.31;101111.59;113137;1235;21954;-76
2023/05/26 00:18:31;;;;;;;16.10;10.20;;;;;;;14.63;62.32;101111.58;112986;1235;21946;-76
2023/05/26 00:21:10;;;;;;;18.00;10.60;;;;;;;14.67;62.22;101115.46;112964;1235;21958;-76
2023/05/26 00:23:48;;;;;;;16.60;10.50;;;;;;;14.68;62.28;101114.73;113329;1235;21941;-76
2023/05/26 00:26:25;;;;;;;14.00;9.40;;;;;;;14.69;62.37;101115.02;113212;1235;22381;-75
2023/05/26 00:29:10;;;;;;;15.30;8.90;;;;;;;14.71;62.34;101115.83;113252;1235;21950;-75
2023/05/26 00:32:13;;;;;;;11.50;8.30;;;;;;;14.71;62.39;101117.56;113287;1233;23024;-78
2023/05/26 00:34:43;;;;;;;14.00;9.20;;;;;;;14.74;62.36;101117.77;112957;1235;24336;-76
2023/05/26 00:37:16;;;;;;;13.80;8.90;;;;;;;14.76;62.26;101122.07;113286;1235;21948;-76
2023/05/26 00:40:02;;;;;;;15.40;8.70;;;;;;;14.76;62.15;101118.23;113269;1235;22008;-76
2023/05/26 00:42:39;;;;;;;12.70;9.50;;;;;;;14.75;62.22;101121.23;113080;1235;21951;-77
2023/05/26 00:45:11;;;;;;;12.80;8.90;;;;;;;14.75;62.23;101121.39;113050;1235;23597;-78
2023/05/26 00:47:46;;;;;;;17.50;10.30;;;;;;;14.76;62.12;101124.02;113144;1235;21939;-77
2023/05/26 00:50:36;;;;;;;16.90;10.00;;;;;;;14.75;62.10;101123.20;112510;1240;22034;-76
2023/05/26 00:53:26;;;;;;;14.80;10.20;;;;;;;14.74;62.23;101119.88;112721;1240;21990;-76
2023/05/26 00:56:27;;;;;;;11.80;8.90;;;;;;;14.71;62.27;101123.70;112783;1241;22021;-77
2023/05/26 00:59:40;;;;;;;13.70;9.50;;;;;;;14.67;62.39;101120.35;112071;1246;22004;-77
2023/05/26 01:02:14;;;;;;;14.10;10.30;;;;;;;14.67;62.42;101124.23;111537;1251;21948;-78
2023/05/26 01:04:44;;;;;;;14.70;9.80;;;;;;;14.69;62.36;101122.91;111596;1251;23643;-77
2023/05/26 01:07:20;;;;;;;12.30;9.30;;;;;;;14.71;62.44;101122.30;111595;1252;22736;-76
2023/05/26 01:09:52;;;;;;;11.10;8.20;;;;;;;14.74;62.35;101119.35;112022;1246;22718;-77
2023/05/26 01:12:38;;;;;;;16.20;9.70;;;;;;;14.74;62.32;101117.95;112147;1246;24176;-77
2023/05/26 01:15:29;;;;;;;12.90;9.20;;;;;;;14.74;62.26;101120.41;111983;1244;22433;-77
2023/05/26 01:18:31;;;;;;;16.10;10.40;;;;;;;14.73;62.22;101121.67;112488;1242;22021;-77
2023/05/26 01:21:12;;;;;;;15.10;9.40;;;;;;;14.72;62.24;101118.92;112940;1235;21974;-77
2023/05/26 01:24:38;;;;;;;13.00;9.70;;;;;;;14.72;62.31;101119.08;113371;1235;21927;-76
2023/05/26 01:27:32;;;;;;;11.90;9.20;;;;;;;14.68;62.15;101117.36;112529;1242;22060;-76
2023/05/26 01:30:06;;;;;;;11.20;8.30;;;;;;;14.66;62.32;101116.36;112316;1242;21950;-77
2023/05/26 01:32:53;;;;;;;11.30;8.30;;;;;;;14.67;62.31;101114.92;111905;1247;22990;-76
2023/05/26 01:35:28;;;;;;;12.80;8.90;;;;;;;14.69;62.34;101110.10;111651;1247;21964;-76
2023/05/26 01:38:03;;;;;;;10.40;8.90;;;;;;;14.67;62.33;101105.47;111845;1247;22135;-76
2023/05/26 01:40:38;;;;;;;14.40;8.90;;;;;;;14.67;62.36;101110.54;111817;1247;21990;-76
2023/05/26 01:43:19;;;;;;;;;;;;;;;14.65;62.29;101112.38;111749;1247;21957;-76
2023/05/26 01:46:23;;;;;;;14.10;9.00;;;;;;;14.57;62.61;101113.05;111987;1247;21969;-76
2023/05/26 01:48:59;;;;;;;10.50;8.30;;;;;;;14.56;62.55;101116.27;111936;1247;21973;-77
2023/05/26 01:51:36;;;;;;;12.60;8.60;;;;;;;14.57;62.54;101114.61;112285;1242;21947;-76
2023/05/26 01:54:23;;;;;;;17.80;9.20;;;;;;;14.59;62.46;101115.96;112415;1242;22170;-75
2023/05/26 01:56:59;;;;;;;12.20;8.80;;;;;;;14.58;62.48;101116.52;112083;1247;22042;-76
2023/05/26 01:59:33;;;;;;;11.20;8.60;;;;;;;14.55;62.50;101111.20;112434;1241;23035;-76
2023/05/26 02:02:01;;;;;;;12.70;9.20;;;;;;;14.56;62.38;101110.81;112616;1241;23024;-76
2023/05/26 02:04:30;;;;;;;11.30;9.00;;;;;;;14.55;62.44;101109.11;112263;1244;21950;-76
2023/05/26 02:07:02;;;;;;;14.10;9.40;;;;;;;14.54;62.40;101110.90;112255;1244;21948;-75
2023/05/26 02:09:32;;;;;;;14.00;9.40;;;;;;;14.51;62.58;101110.33;112143;1244;21952;-75
2023/05/26 02:12:00;;;;;;;14.70;9.10;;;;;;;14.50;62.69;101108.61;112253;1244;23409;-74
2023/05/26 02:14:27;;;;;;;16.70;9.40;;;;;;;14.49;62.64;101107.79;112495;1239;21949;-77
2023/05/26 02:16:55;;;;;;;17.10;10.30;;;;;;;14.48;62.84;101110.27;112890;1239;21950;-78
2023/05/26 02:19:25;;;;;;;14.20;9.20;;;;;;;14.45;62.82;101112.48;112825;1239;21942;-76
2023/05/26 02:21:55;;;;;;;14.30;9.90;;;;;;;14.44;62.90;101110.95;112691;1239;23604;-76
2023/05/26 02:24:23;;;;;;;14.10;9.00;;;;;;;14.45;63.07;101116.70;112973;1239;21948;-78
2023/05/26 02:26:59;;;;;;;19.20;9.90;;;;;;;14.45;63.06;101119.49;112735;1239;22003;-77
2023/05/26 02:29:29;;;;;;;12.50;9.40;;;;;;;14.44;63.18;101115.88;113042;1235;21952;-77
2023/05/26 02:32:02;;;;;;;17.80;9.60;;;;;;;14.44;63.10;101114.48;113246;1235;23621;-76
2023/05/26 02:34:32;;;;;;;17.10;11.10;;;;;;;14.42;63.08;101116.48;112624;1242;23763;-75
2023/05/26 02:37:07;;;;;;;20.80;11.00;;;;;;;14.39;63.13;101118.52;112557;1242;22808;-76
2023/05/26 02:39:48;;;;;;;17.90;10.10;;;;;;;14.37;63.13;101113.89;112602;1242;22804;-76
2023/05/26 02:42:26;;;;;;;16.60;10.20;;;;;;;14.33;63.08;101120.34;112381;1242;21944;-76
2023/05/26 02:44:56;;;;;;;15.00;9.70;;;;;;;14.31;63.03;101121.81;111922;1246;23069;-77
2023/05/26 02:47:42;;;;;;;13.90;9.40;;;;;;;14.29;63.01;101118.94;111341;1251;22041;-75
2023/05/26 02:50:17;;;;;;;16.50;9.00;;;;;;;14.26;62.98;101123.09;111408;1251;23723;-74
2023/05/26 02:52:54;;;;;;;14.90;9.40;;;;;;;14.25;63.00;101120.88;111580;1248;23728;-76
2023/05/26 02:55:30;;;;;;;16.30;8.90;;;;;;;14.23;63.02;101120.73;111937;1248;22019;-76
2023/05/26 02:58:12;;;;;;;17.40;9.60;;;;;;;14.21;62.97;101122.77;111717;1248;21954;-76
2023/05/26 03:00:53;;;;;;;18.10;9.70;;;;;;;14.19;63.04;101123.69;111892;1248;22885;-75
2023/05/26 03:03:32;;;;;;;15.70;8.70;;;;;;;14.19;62.91;101121.96;111846;1244;22834;-77
2023/05/26 03:06:04;;;;;;;13.70;7.80;;;;;;;14.17;62.78;101122.91;111991;1245;21959;-76
2023/05/26 03:08:37;;;;;;;13.30;8.60;;;;;;;14.15;62.75;101123.17;111687;1249;22332;-77
2023/05/26 03:11:08;;;;;;;13.90;8.90;;;;;;;14.13;62.68;101126.05;111853;1246;21986;-76
2023/05/26 03:13:38;;;;;;;14.30;9.30;;;;;;;14.13;62.86;101127.63;112242;1246;23756;-76
2023/05/26 03:16:11;;;;;;;15.60;8.40;;;;;;;14.14;62.96;101130.20;111618;1249;21957;-76
2023/05/26 03:19:00;;;;;;;18.90;9.30;;;;;;;14.12;62.76;101128.19;111249;1254;21970;-74
2023/05/26 03:21:32;;;;;;;15.70;8.80;;;;;;;14.10;62.75;101126.36;111292;1250;22999;-76
2023/05/26 03:24:20;;;;;;;71.40;64.30;;;;;;;14.08;63.02;101122.23;111161;1251;21958;-75
2023/05/26 03:26:57;;;;;;;18.20;11.30;;;;;;;14.10;63.04;101118.11;111518;1248;23622;-76
2023/05/26 03:29:35;;;;;;;28.00;24.10;;;;;;;14.13;62.87;101121.15;111907;1248;21936;-76
2023/05/26 03:32:05;;;;;;;25.90;21.50;;;;;;;14.16;62.92;101123.50;111762;1247;22746;-76
2023/05/26 03:34:44;;;;;;;24.90;14.50;;;;;;;14.17;62.69;101123.45;112103;1242;22154;-76
2023/05/26 03:37:26;;;;;;;12.30;8.40;;;;;;;14.19;62.60;101123.38;112817;1236;21945;-76
2023/05/26 03:40:03;;;;;;;16.10;8.30;;;;;;;14.20;62.55;101124.70;112289;1242;21964;-76
2023/05/26 03:43:08;;;;;;;14.30;8.30;;;;;;;14.19;62.46;101123.87;112420;1242;22976;-77
2023/05/26 03:45:53;;;;;;;19.90;10.10;;;;;;;14.20;62.20;101125.23;112003;1246;22001;-76
2023/05/26 03:48:29;;;;;;;16.90;8.80;;;;;;;14.18;62.07;101126.02;111943;1246;23598;-77
2023/05/26 03:51:21;;;;;;;21.30;9.40;;;;;;;14.16;62.09;101130.14;112064;1245;21961;-77
2023/05/26 03:53:59;;;;;;;15.80;8.70;;;;;;;14.16;62.21;101129.80;111587;1250;21962;-76
2023/05/26 03:56:32;;;;;;;17.00;8.70;;;;;;;14.17;62.24;101129.92;111515;1250;21954;-79
2023/05/26 03:59:23;;;;;;;25.70;10.30;;;;;;;14.18;62.03;101128.48;112032;1246;22823;-76
2023/05/26 04:01:57;;;;;;;17.60;8.10;;;;;;;14.16;62.06;101127.85;112102;1246;22840;-78
2023/05/26 04:04:38;;;;;;;19.00;8.80;;;;;;;14.17;62.14;101128.86;111835;1248;21964;-76
2023/05/26 04:07:08;;;;;;;21.60;8.60;;;;;;;14.19;62.16;101130.88;111816;1248;23642;-76
2023/05/26 04:09:51;;;;;;;25.00;9.50;;;;;;;14.22;62.17;101124.64;111800;1248;23704;-75
2023/05/26 04:12:27;;;;;;;20.70;8.70;;;;;;;14.25;62.27;101130.64;112084;1241;23666;-76
2023/05/26 04:15:12;;;;;;;25.40;9.60;;;;;;;14.29;62.25;101132.40;112644;1241;22638;-75
2023/05/26 04:17:49;;;;;;;15.20;8.00;;;;;;;14.34;62.16;101137.48;112545;1241;21956;-75
2023/05/26 04:20:34;;;;;;;17.60;8.20;;;;;;;14.38;62.19;101134.34;112366;1241;21906;-77
2023/05/26 04:23:30;;;;;;;16.50;7.90;;;;;;;14.42;62.12;101137.45;113198;1235;21972;-76
2023/05/26 04:26:21;;;;;;;14.10;8.10;;;;;;;14.51;62.08;101137.98;113225;1227;21949;-79
2023/05/26 04:29:19;;;;;;;19.20;9.30;;;;;;;14.59;61.88;101143.48;113184;1235;21976;-76
2023/05/26 04:32:11;;;;;;;14.30;7.30;;;;;;;14.69;61.98;101144.78;113048;1235;24731;-76
2023/05/26 04:35:30;;;;;;;21.70;8.60;;;;;;;14.86;61.88;101151.95;113267;1235;22984;-77
2023/05/26 04:38:12;;;;;;;18.70;8.70;;;;;;;15.10;62.06;101151.46;113316;1235;22092;-76
2023/05/26 04:41:07;;;;;;;20.30;9.10;;;;;;;15.44;62.00;101155.17;113223;1235;21935;-77
2023/05/26 04:43:57;;;;;;;29.40;9.30;;;;;;;15.77;61.15;101155.27;113260;1235;22618;-77
2023/05/26 04:46:53;;;;;;;22.10;8.00;;;;;;;16.09;60.54;101156.05;113428;1235;21935;-77
2023/05/26 04:49:33;;;;;;;;;;;;;;;16.43;59.74;101159.70;113262;1235;21929;-77
2023/05/26 04:52:09;;;;;;;17.60;6.50;;;;;;;16.69;59.53;101159.27;112594;1242;22057;-81
2023/05/26 04:54:58;;;;;;;19.10;8.30;;;;;;;17.01;58.34;101161.86;112583;1242;21976;-77
2023/05/26 04:57:39;;;;;;;19.80;7.70;;;;;;;17.26;57.28;101164.78;112131;1244;23034;-78
2023/05/26 05:00:42;;;;;;;18.70;7.20;;;;;;;17.56;56.57;101166.75;112303;1244;21962;-76
2023/05/26 05:03:38;;;;;;;18.90;7.80;;;;;;;17.84;55.74;101163.30;112123;1244;21989;-77
2023/05/26 05:06:20;;;;;;;11.10;6.00;;;;;;;18.15;54.74;101162.10;112138;1244;22197;-75
2023/05/26 05:09:02;;;;;;;16.50;7.90;;;;;;;18.35;53.43;101167.68;112144;1244;21960;-76
2023/05/26 05:11:47;;;;;;;16.00;7.10;;;;;;;18.47;52.81;101167.50;112758;1239;23624;-76
2023/05/26 05:14:36;;;;;;;;;;;;;;;18.62;52.07;101165.04;112804;1239;23761;-75
2023/05/26 05:17:21;;;;;;;14.60;6.40;;;;;;;18.60;51.60;101164.44;112776;1241;21967;-75
2023/05/26 05:19:56;;;;;;;15.40;7.10;;;;;;;18.71;51.58;101161.30;112313;1241;22970;-77
2023/05/26 05:22:53;;;;;;;20.00;6.00;;;;;;;18.88;51.14;101160.16;111596;1246;22451;-77
2023/05/26 05:25:34;;;;;;;19.80;6.30;;;;;;;19.17;51.10;101162.15;111775;1246;23636;-76
2023/05/26 05:28:09;;;;;;;19.50;6.70;;;;;;;19.37;49.50;101167.81;112166;1246;22052;-75
2023/05/26 05:30:54;;;;;;;20.10;7.40;;;;;;;19.44;48.66;101167.89;111684;1244;23023;-77
2023/05/26 05:33:30;;;;;;;18.50;6.60;;;;;;;19.50;48.04;101166.81;111659;1247;23035;-77
2023/05/26 05:35:59;;;;;;;19.70;6.80;;;;;;;19.50;47.22;101168.73;111806;1246;21933;-76
2023/05/26 05:38:28;;;;;;;16.40;6.90;;;;;;;19.45;47.06;101168.88;111994;1245;22973;-76
2023/05/26 05:40:57;;;;;;;21.60;6.90;;;;;;;19.61;47.52;101171.60;111880;1246;23063;-76
2023/05/26 05:43:27;;;;;;;18.10;7.30;;;;;;;19.97;47.30;101173.56;111918;1246;22123;-75
2023/05/26 05:45:56;;;;;;;18.40;6.10;;;;;;;20.33;46.41;101174.11;111943;1246;23576;-76
2023/05/26 05:48:52;;;;;;;14.80;6.10;;;;;;;20.50;45.07;101171.92;112685;1228;23007;-76
2023/05/26 05:51:54;;;;;;;21.60;7.00;;;;;;;20.61;44.83;101178.06;112675;1241;21972;-76
2023/05/26 05:54:33;;;;;;;14.70;5.90;;;;;;;20.74;43.98;101179.39;112678;1240;21950;-76
2023/05/26 05:57:28;;;;;;;15.20;6.70;;;;;;;20.86;43.88;101173.77;112619;1241;22966;-75
2023/05/26 06:00:15;;;;;;;15.10;5.70;;;;;;;21.05;43.22;101178.51;112302;1241;21980;-77
2023/05/26 06:02:52;;;;;;;17.20;7.10;;;;;;;21.17;42.22;101176.58;112803;1241;23785;-76
2023/05/26 06:05:30;;;;;;;19.20;5.90;;;;;;;21.24;41.59;101179.30;112358;1239;23070;-75
2023/05/26 06:08:11;;;;;;;18.30;5.70;;;;;;;21.28;41.24;101179.59;112343;1241;21942;-76
2023/05/26 06:10:51;;;;;;;13.40;5.80;;;;;;;21.33;41.11;101182.75;112848;1235;21942;-78
2023/05/26 06:13:45;;;;;;;18.20;6.30;;;;;;;21.37;40.98;101180.51;113180;1235;21947;-76
2023/05/26 06:16:22;;;;;;;17.10;5.80;;;;;;;21.45;40.85;101183.40;112990;1235;23603;-76
2023/05/26 06:19:12;;;;;;;13.70;5.80;;;;;;;21.49;40.47;101183.64;112646;1239;21948;-76
2023/05/26 06:21:42;;;;;;;14.50;6.00;;;;;;;21.52;40.31;101183.58;112187;1243;21961;-77
2023/05/26 06:24:10;;;;;;;17.30;6.40;;;;;;;21.62;40.19;101183.55;112237;1243;24439;-76
2023/05/26 06:26:50;;;;;;;17.10;5.90;;;;;;;21.77;39.72;101186.36;111668;1247;23727;-77
2023/05/26 06:29:33;;;;;;;12.70;6.10;;;;;;;21.92;39.24;101187.79;111767;1247;21954;-74
2023/05/26 06:32:27;;;;;;;17.30;5.20;;;;;;;22.04;39.08;101186.26;111558;1251;22043;-75
2023/05/26 06:35:06;;;;;;;15.40;5.80;;;;;;;22.14;38.68;101190.82;111594;1248;23525;-78
2023/05/26 06:37:52;;;;;;;16.00;6.20;;;;;;;22.31;38.26;101185.70;111822;1252;22012;-82
2023/05/26 06:40:24;;;;;;;15.50;5.80;;;;;;;22.42;38.28;101187.71;111354;1257;22990;-82
2023/05/26 06:43:05;;;;;;;11.00;4.90;;;;;;;22.49;38.20;101186.86;111378;1257;23788;-81
2023/05/26 06:45:44;;;;;;;13.50;5.70;;;;;;;22.56;38.33;101186.86;111443;1255;23031;-81
2023/05/26 06:48:27;;;;;;;15.00;5.40;;;;;;;22.69;38.06;101190.48;111633;1254;24495;-82
2023/05/26 06:51:16;;;;;;;15.80;5.80;;;;;;;22.67;37.72;101193.48;111645;1248;21989;-82
2023/05/26 06:53:56;;;;;;;14.20;6.00;;;;;;;22.74;37.77;101197.02;111799;1249;21976;-80
2023/05/26 06:56:37;;;;;;;16.80;5.10;;;;;;;22.63;36.90;101201.07;112450;1245;22008;-80
2023/05/26 06:59:11;;;;;;;14.80;5.50;;;;;;;22.38;36.59;101202.91;112505;1239;21942;-81
2023/05/26 07:02:04;;;;;;;16.10;5.80;;;;;;;22.23;37.13;101202.36;112359;1245;21968;-80
2023/05/26 07:04:50;;;;;;;14.40;5.00;;;;;;;22.30;37.41;101200.64;112300;1245;23002;-79
2023/05/26 07:07:29;;;;;;;17.40;6.10;;;;;;;22.29;36.92;101199.17;112269;1245;23747;-82
2023/05/26 07:10:36;;;;;;;14.70;6.20;;;;;;;22.30;37.15;101198.67;112463;1242;22478;-81
2023/05/26 07:13:25;;;;;;;14.80;5.70;;;;;;;22.39;37.22;101198.41;112397;1243;21967;-81
2023/05/26 07:15:57;;;;;;;17.10;5.50;;;;;;;22.32;36.86;101196.94;112351;1242;23011;-80
2023/05/26 07:18:29;;;;;;;11.50;5.30;;;;;;;22.21;36.59;101199.20;112282;1246;21954;-80
2023/05/26 07:21:15;;;;;;;22.30;6.60;;;;;;;21.95;36.38;101199.63;112964;1240;21954;-80
2023/05/26 07:23:45;;;;;;;16.40;4.90;;;;;;;21.73;36.62;101206.55;112692;1241;21947;-80
2023/05/26 07:26:28;;;;;;;15.80;5.90;;;;;;;21.60;36.75;101208.52;113021;1241;22967;-80
2023/05/26 07:28:59;;;;;;;13.50;5.50;;;;;;;21.59;36.93;101210.89;112693;1241;21945;-80
2023/05/26 07:31:32;;;;;;;13.70;6.30;;;;;;;21.54;36.74;101212.86;112723;1241;21959;-80
2023/05/26 07:34:26;;;;;;;14.80;5.30;;;;;;;21.59;36.87;101214.58;112699;1241;22365;-79
2023/05/26 07:37:25;;;;;;;14.50;5.70;;;;;;;21.86;36.65;101213.77;113586;1235;23748;-80
2023/05/26 07:40:00;;;;;;;14.10;6.20;;;;;;;22.03;36.18;101216.45;112806;1241;23101;-79
2023/05/26 07:42:36;;;;;;;12.00;5.40;;;;;;;22.27;35.30;101211.17;112236;1247;23694;-80
2023/05/26 07:45:24;;;;;;;14.50;5.10;;;;;;;22.49;34.58;101209.52;112117;1248;22953;-80
2023/05/26 07:47:59;;;;;;;36.00;6.90;;;;;;;22.70;34.41;101206.70;112281;1247;21999;-79
2023/05/26 07:50:37;;;;;;;17.30;5.70;;;;;;;22.92;33.92;101206.30;112010;1247;24492;-79
2023/05/26 07:53:21;;;;;;;14.60;5.10;;;;;;;23.18;34.10;101198.67;111655;1251;21983;-79
2023/05/26 07:56:03;;;;;;;12.90;5.20;;;;;;;23.45;33.74;101204.98;111683;1251;22721;-80
2023/05/26 07:58:45;;;;;;;14.20;4.90;;;;;;;23.53;32.78;101208.88;111697;1247;22471;-79
2023/05/26 08:01:16;;;;;;;12.40;5.20;;;;;;;23.52;32.17;101209.55;112176;1247;22022;-79
2023/05/26 08:03:59;;;;;;;15.00;5.40;;;;;;;23.64;32.03;101204.68;111672;1253;22756;-79
2023/05/26 08:06:47;;;;;;;;;;;;;;;;;;;;;
2023/05/26 08:09:46;;;;;;;18.60;6.10;;;;;;;23.71;31.86;101204.45;112313;1247;23609;-84
2023/05/26 08:12:23;;;;;;;18.50;6.70;;;;;;;23.78;31.90;101205.90;112609;1243;21946;-80
2023/05/26 08:15:14;;;;;;;15.30;6.00;;;;;;;23.85;31.67;101200.52;112216;1247;21959;-81
2023/05/26 08:17:53;;;;;;;13.40;5.50;;;;;;;23.92;31.34;101199.42;112257;1246;23015;-81
2023/05/26 08:20:31;;;;;;;13.30;5.70;;;;;;;23.93;31.61;101198.83;111279;1251;23664;-79
2023/05/26 08:23:07;;;;;;;15.90;6.10;;;;;;;23.97;31.42;101197.79;111990;1247;21930;-78
2023/05/26 08:26:08;;;;;;;17.80;5.40;;;;;;;24.13;31.15;101202.36;112023;1247;22045;-78
2023/05/26 08:28:51;;;;;;;13.40;5.80;;;;;;;24.27;30.89;101199.64;111842;1248;22049;-77
2023/05/26 08:31:33;;;;;;;14.30;5.60;;;;;;;24.23;30.69;101203.17;111846;1240;23012;-78
2023/05/26 08:34:06;;;;;;;10.10;4.90;;;;;;;24.12;30.56;101205.98;112412;1242;22280;-79
2023/05/26 08:36:38;;;;;;;13.40;5.40;;;;;;;24.19;30.70;101206.87;112531;1242;22116;-78
2023/05/26 08:39:10;;;;;;;16.00;5.50;;;;;;;24.29;30.49;101208.14;113004;1235;21938;-79
2023/05/26 08:41:58;;;;;;;15.70;5.40;;;;;;;24.46;30.56;101207.25;113646;1235;22395;-79
2023/05/26 08:44:33;;;;;;;16.40;5.30;;;;;;;24.65;30.23;101211.80;113404;1235;21966;-77
2023/05/26 08:47:12;;;;;;;13.50;5.10;;;;;;;24.82;29.80;101213.75;113246;1235;22820;-78
2023/05/26 08:50:04;;;;;;;17.80;6.00;;;;;;;24.87;29.31;101210.11;112719;1241;23607;-79
2023/05/26 08:52:46;;;;;;;11.50;4.60;;;;;;;24.93;29.41;101211.77;112843;1241;22889;-77
2023/05/26 08:55:45;;;;;;;14.10;5.30;;;;;;;25.02;29.18;101204.96;112574;1241;21952;-79
2023/05/26 08:58:26;;;;;;;23.70;5.90;;;;;;;25.10;29.19;101200.84;112494;1241;22703;-79
2023/05/26 09:01:05;;;;;;;13.50;5.30;;;;;;;25.23;28.98;101201.94;111847;1248;23734;-78
2023/05/26 09:03:40;;;;;;;11.00;4.60;;;;;;;25.26;28.72;101200.98;111272;1253;21977;-78
2023/05/26 09:06:09;;;;;;;19.30;5.50;;;;;;;25.31;28.75;101199.09;111241;1253;22851;-78
2023/05/26 09:08:51;;;;;;;;;;;;;;;;;;;;;
2023/05/26 09:11:27;;;;;;;12.90;5.10;;;;;;;25.49;28.01;101202.85;112059;1248;21969;-81
2023/05/26 09:14:07;;;;;;;12.60;4.30;;;;;;;25.41;27.41;101200.04;111987;1248;21973;-78
2023/05/26 09:16:49;;;;;;;13.60;5.00;;;;;;;25.41;27.59;101198.40;111986;1248;21961;-77
2023/05/26 09:19:19;;;;;;;16.20;6.00;;;;;;;25.47;27.64;101192.38;112272;1242;23689;-78
2023/05/26 09:21:54;;;;;;;15.20;5.00;;;;;;;25.45;27.59;101193.23;111940;1243;21954;-81
2023/05/26 09:24:27;;;;;;;14.90;5.70;;;;;;;25.41;27.11;101193.59;112120;1243;22509;-78
2023/05/26 09:27:00;;;;;;;17.20;6.30;;;;;;;25.27;27.08;101189.80;110354;1243;21989;-79
2023/05/26 09:29:50;;;;;;;12.10;4.30;;;;;;;25.13;27.52;101189.79;112802;1235;21956;-80
2023/05/26 09:32:53;;;;;;;20.90;5.70;;;;;;;24.91;27.62;101192.18;112692;1243;21953;-77
2023/05/26 09:35:37;;;;;;;22.50;5.60;;;;;;;24.71;27.84;101192.95;112371;1235;21968;-79
2023/05/26 09:38:35;;;;;;;;;;;;;;;;;;;;;
2023/05/26 09:41:18;;;;;;;18.80;6.50;;;;;;;24.42;27.96;101185.07;113476;1235;22333;-80
2023/05/26 09:44:33;;;;;;;24.80;5.50;;;;;;;24.31;28.00;101190.54;113462;1235;22262;-78
2023/05/26 09:47:21;;;;;;;20.00;5.20;;;;;;;24.34;28.02;101197.46;113470;1235;21966;-82
2023/05/26 09:50:08;;;;;;;17.10;5.40;;;;;;;24.36;27.95;101194.23;113288;1235;22449;-81
2023/05/26 09:52:47;;;;;;;15.70;5.20;;;;;;;24.47;28.05;101195.83;112865;1238;21941;-80
2023/05/26 09:55:44;;;;;;;13.70;4.50;;;;;;;24.66;27.69;101194.77;112955;1239;21982;-81
2023/05/26 09:58:38;;;;;;;18.00;5.10;;;;;;;24.92;27.08;101184.10;112949;1239;23054;-79
2023/05/26 10:01:14;;;;;;;15.40;5.60;;;;;;;25.05;26.57;101185.42;113118;1239;21908;-82
2023/05/26 10:05:01;;;;;;;11.70;4.50;;;;;;;25.07;26.30;101187.91;112496;1245;22329;-79
2023/05/26 10:07:55;;;;;;;24.10;5.30;;;;;;;25.02;26.53;101181.95;112461;1245;22055;-81
2023/05/26 10:10:30;;;;;;;14.20;5.00;;;;;;;25.11;26.38;101187.79;112692;1242;22051;-81
2023/05/26 10:13:05;;;;;;;20.80;4.80;;;;;;;25.14;26.12;101189.50;112275;1242;21968;-79
2023/05/26 10:15:51;;;;;;;15.30;4.30;;;;;;;25.09;25.81;101190.30;113002;1242;22523;-80
2023/05/26 10:18:25;;;;;;;11.00;4.50;;;;;;;25.07;26.13;101195.92;111934;1247;22009;-80
2023/05/26 10:21:00;;;;;;;;;;;;;;;25.00;26.08;101192.50;112083;1247;22413;-79
2023/05/26 10:23:47;;;;;;;14.90;3.60;;;;;;;24.86;26.06;101194.23;112293;1247;23715;-81
2023/05/26 10:27:51;;;;;;;17.10;4.60;;;;;;;24.65;25.69;101195.95;111718;1252;22072;-81
2023/05/26 10:30:44;;;;;;;27.30;5.40;;;;;;;24.57;24.73;101192.52;111588;1252;21983;-82
2023/05/26 10:38:13;;;;;;;18.10;4.30;;;;;;;24.67;24.87;101192.43;111411;1254;21960;-80
2023/05/26 10:41:48;;;;;;;17.50;5.30;;;;;;;24.74;24.53;101190.91;111868;1249;23104;-80
2023/05/26 10:44:46;;;;;;;15.20;3.60;;;;;;;24.65;24.15;101191.52;112281;1243;21961;-79
2023/05/26 10:47:49;;;;;;;10.10;3.70;;;;;;;24.25;23.82;101192.13;112329;1243;21965;-80
2023/05/26 10:50:20;;;;;;;19.70;3.20;;;;;;;24.06;24.25;101194.17;112562;1243;22975;-79
2023/05/26 10:52:51;;;;;;;12.60;3.60;;;;;;;23.94;24.22;101191.08;112616;1243;21950;-80
2023/05/26 10:56:08;;;;;;;;;;;;;;;;;;;;;
2023/05/26 10:58:55;;;;;;;10.70;4.30;;;;;;;23.61;24.63;101199.73;112077;1247;22091;-78
2023/05/26 11:01:57;;;;;;;22.30;4.90;;;;;;;23.40;25.22;101198.77;111979;1247;21983;-78
2023/05/26 11:04:43;;;;;;;15.70;4.50;;;;;;;23.18;26.12;101198.52;112029;1247;21957;-80
2023/05/26 11:07:37;;;;;;;11.60;4.20;;;;;;;23.01;26.69;101196.94;111964;1247;21962;-79
2023/05/26 11:10:18;;;;;;;13.20;5.10;;;;;;;22.84;27.03;101195.56;112137;1247;21951;-79
2023/05/26 11:12:58;;;;;;;12.90;4.40;;;;;;;22.66;27.12;101189.48;111570;1252;23603;-80
2023/05/26 11:15:50;;;;;;;7.80;4.20;;;;;;;22.36;27.41;101190.81;112458;1246;21950;-81
2023/05/26 11:18:28;;;;;;;11.80;4.50;;;;;;;22.25;27.77;101187.20;112711;1243;22366;-79
2023/05/26 11:21:33;;;;;;;12.70;4.90;;;;;;;22.28;28.11;101184.31;112582;1243;23642;-79
2023/05/26 11:24:16;;;;;;;12.70;4.50;;;;;;;22.31;28.16;101183.60;112339;1243;22029;-81
2023/05/26 11:27:08;;;;;;;17.00;4.40;;;;;;;22.32;28.40;101177.83;112464;1242;21958;-80
2023/05/26 11:30:02;;;;;;;15.00;4.50;;;;;;;22.34;28.36;101181.06;112631;1242;21993;-81
2023/05/26 11:32:52;;;;;;;12.10;4.50;;;;;;;22.27;28.30;101184.06;112341;1243;22076;-80
2023/05/26 11:35:47;;;;;;;13.20;4.90;;;;;;;22.16;28.23;101187.98;112433;1242;23687;-80
2023/05/26 11:39:19;;;;;;;13.00;3.70;;;;;;;21.99;28.17;101179.17;113445;1236;21943;-80
2023/05/26 11:42:17;;;;;;;13.80;4.60;;;;;;;22.00;28.72;101178.20;112989;1239;21942;-79
2023/05/26 11:45:29;;;;;;;14.60;4.70;;;;;;;22.08;28.72;101181.70;113124;1239;23010;-79
2023/05/26 11:49:26;;;;;;;14.40;5.40;;;;;;;22.16;28.74;101180.70;113091;1239;22017;-78
2023/05/26 11:52:54;;;;;;;14.70;4.00;;;;;;;22.21;28.09;101178.92;112724;1243;21963;-79
2023/05/26 11:56:32;;;;;;;9.20;3.80;;;;;;;22.23;27.93;101179.54;111937;1250;21962;-79
2023/05/26 11:59:15;;;;;;;10.90;4.00;;;;;;;22.36;27.95;101174.67;111983;1251;22004;-83
2023/05/26 12:01:58;;;;;;;15.40;4.60;;;;;;;22.57;28.11;101177.02;112213;1247;21960;-81
2023/05/26 12:04:31;;;;;;;12.00;3.60;;;;;;;22.75;27.91;101179.20;112271;1246;23059;-81
2023/05/26 12:07:30;;;;;;;12.20;4.40;;;;;;;22.82;28.00;101183.27;112036;1246;22017;-81
2023/05/26 12:10:35;;;;;;;12.70;5.30;;;;;;;22.84;28.28;101174.46;112537;1246;21956;-80
2023/05/26 12:14:11;;;;;;;10.00;3.60;;;;;;;22.80;28.02;101172.97;111936;1251;22425;-81
2023/05/26 12:17:17;;;;;;;10.40;4.00;;;;;;;22.64;28.02;101172.77;112081;1251;24611;-80
2023/05/26 12:20:17;;;;;;;10.10;4.90;;;;;;;22.56;27.95;101170.90;111530;1256;22013;-80
2023/05/26 12:23:24;;;;;;;12.70;4.10;;;;;;;22.51;27.83;101169.30;111487;1256;22113;-81
2023/05/26 12:26:02;;;;;;;12.00;3.80;;;;;;;22.50;27.82;101165.30;110757;1255;21965;-79
2023/05/26 12:28:47;;;;;;;9.60;4.20;;;;;;;22.51;27.54;101164.16;111415;1254;22974;-79
2023/05/26 12:31:21;;;;;;;10.80;4.20;;;;;;;22.47;27.11;101167.17;111972;1251;21952;-83
2023/05/26 12:34:08;;;;;;;12.30;3.80;;;;;;;22.44;27.63;101161.71;111936;1255;21980;-83
2023/05/26 12:37:27;;;;;;;14.20;4.80;;;;;;;22.50;27.71;101163.56;111504;1256;23597;-86
2023/05/26 12:40:56;;;;;;;12.90;4.20;;;;;;;22.54;28.06;101162.77;112021;1251;21987;-80